Hamburg Township, Michigan
Current Conditions -  °F | °C
As of 10:53 AM on Sunday 21 Dec 2014 (Local Time) from KARB Reporting Station
Overcast Overcast  
Wind Chill: 26°   Ceiling: 6000
Heat Index: 31°   Visibility: 8mi
Dew Point: 24°   Wind: 5mph
Humidity: 76%   Direction: 170°S
Pressure: 30.3"   Gusts: NA
Location:  42.409°N, 83.7757°W
Report Text: KARB 211553Z 17004KT 8SM OVC060 M01/M04 A3030 RMK AO2 SLP270 T10061044
Loading
Personal Weather Stations






























Interactive Weather Map New forecast layout! Learn more

10-Day Weather Forecast

Advertisements
Track Severe Weather on mobile